sensor_id;sensor_type;location;lat;lon;timestamp;temperature;humidity
27314;DHT22;14800;48.174;9.798;2022-08-21T00:02:27;19.20;80.50
27314;DHT22;14800;48.174;9.798;2022-08-21T00:04:53;19.10;80.20
27314;DHT22;14800;48.174;9.798;2022-08-21T00:07:19;19.10;80.20
27314;DHT22;14800;48.174;9.798;2022-08-21T00:09:45;19.00;80.30
27314;DHT22;14800;48.174;9.798;2022-08-21T00:12:11;19.00;80.70
27314;DHT22;14800;48.174;9.798;2022-08-21T00:14:37;18.90;81.10
27314;DHT22;14800;48.174;9.798;2022-08-21T00:17:04;18.90;81.30
27314;DHT22;14800;48.174;9.798;2022-08-21T00:19:31;18.90;81.50
27314;DHT22;14800;48.174;9.798;2022-08-21T00:21:57;18.80;81.50
27314;DHT22;14800;48.174;9.798;2022-08-21T00:24:24;18.80;81.30
27314;DHT22;14800;48.174;9.798;2022-08-21T00:26:50;18.80;81.30
27314;DHT22;14800;48.174;9.798;2022-08-21T00:29:15;18.90;81.20
27314;DHT22;14800;48.174;9.798;2022-08-21T00:31:42;18.80;80.90
27314;DHT22;14800;48.174;9.798;2022-08-21T00:34:09;18.80;80.60
27314;DHT22;14800;48.174;9.798;2022-08-21T00:36:35;18.80;80.40
27314;DHT22;14800;48.174;9.798;2022-08-21T00:39:02;18.80;80.30
27314;DHT22;14800;48.174;9.798;2022-08-21T00:41:28;18.70;80.10
27314;DHT22;14800;48.174;9.798;2022-08-21T00:43:55;18.70;80.50
27314;DHT22;14800;48.174;9.798;2022-08-21T00:46:21;18.60;81.20
27314;DHT22;14800;48.174;9.798;2022-08-21T00:48:47;18.70;80.70
27314;DHT22;14800;48.174;9.798;2022-08-21T00:51:24;18.50;80.80
27314;DHT22;14800;48.174;9.798;2022-08-21T00:53:56;18.50;81.20
27314;DHT22;14800;48.174;9.798;2022-08-21T00:56:24;18.40;81.30
27314;DHT22;14800;48.174;9.798;2022-08-21T00:58:52;18.30;81.30
27314;DHT22;14800;48.174;9.798;2022-08-21T01:01:19;18.30;81.30
27314;DHT22;14800;48.174;9.798;2022-08-21T01:03:46;18.30;81.30
27314;DHT22;14800;48.174;9.798;2022-08-21T01:06:12;18.20;81.60
27314;DHT22;14800;48.174;9.798;2022-08-21T01:08:38;18.20;81.60
27314;DHT22;14800;48.174;9.798;2022-08-21T01:11:04;18.10;81.70
27314;DHT22;14800;48.174;9.798;2022-08-21T01:13:34;18.00;81.90
27314;DHT22;14800;48.174;9.798;2022-08-21T01:16:03;18.00;82.00
27314;DHT22;14800;48.174;9.798;2022-08-21T01:18:29;17.90;82.00
27314;DHT22;14800;48.174;9.798;2022-08-21T01:21:07;17.90;82.10
27314;DHT22;14800;48.174;9.798;2022-08-21T01:23:35;17.90;82.40
27314;DHT22;14800;48.174;9.798;2022-08-21T01:26:02;17.80;82.40
27314;DHT22;14800;48.174;9.798;2022-08-21T01:28:28;17.80;82.30
27314;DHT22;14800;48.174;9.798;2022-08-21T01:30:57;17.80;82.40
27314;DHT22;14800;48.174;9.798;2022-08-21T01:33:24;17.80;82.20
27314;DHT22;14800;48.174;9.798;2022-08-21T01:35:50;17.80;82.00
27314;DHT22;14800;48.174;9.798;2022-08-21T01:38:16;17.80;82.00
27314;DHT22;14800;48.174;9.798;2022-08-21T01:40:43;17.70;82.00
27314;DHT22;14800;48.174;9.798;2022-08-21T01:43:09;17.70;81.90
27314;DHT22;14800;48.174;9.798;2022-08-21T01:45:35;17.70;82.00
27314;DHT22;14800;48.174;9.798;2022-08-21T01:48:01;17.60;82.10
27314;DHT22;14800;48.174;9.798;2022-08-21T01:50:28;17.60;82.50
27314;DHT22;14800;48.174;9.798;2022-08-21T01:52:54;17.60;82.80
27314;DHT22;14800;48.174;9.798;2022-08-21T01:55:20;17.60;82.80
27314;DHT22;14800;48.174;9.798;2022-08-21T01:57:46;17.50;82.70
27314;DHT22;14800;48.174;9.798;2022-08-21T02:00:14;17.50;82.80
27314;DHT22;14800;48.174;9.798;2022-08-21T02:02:40;17.50;82.70
27314;DHT22;14800;48.174;9.798;2022-08-21T02:05:07;17.50;82.40
27314;DHT22;14800;48.174;9.798;2022-08-21T02:07:41;17.50;82.50
27314;DHT22;14800;48.174;9.798;2022-08-21T02:10:10;17.50;82.70
27314;DHT22;14800;48.174;9.798;2022-08-21T02:12:36;17.50;82.70
27314;DHT22;14800;48.174;9.798;2022-08-21T02:15:06;17.50;82.40
27314;DHT22;14800;48.174;9.798;2022-08-21T02:20:45;17.50;81.90
27314;DHT22;14800;48.174;9.798;2022-08-21T02:23:12;17.50;81.80
27314;DHT22;14800;48.174;9.798;2022-08-21T02:25:38;17.40;81.80
27314;DHT22;14800;48.174;9.798;2022-08-21T02:28:08;17.40;82.00
27314;DHT22;14800;48.174;9.798;2022-08-21T02:30:38;17.40;82.00
27314;DHT22;14800;48.174;9.798;2022-08-21T02:33:05;17.30;81.70
27314;DHT22;14800;48.174;9.798;2022-08-21T02:35:31;17.30;81.50
27314;DHT22;14800;48.174;9.798;2022-08-21T02:38:03;17.30;81.50
27314;DHT22;14800;48.174;9.798;2022-08-21T02:40:32;17.20;81.60
27314;DHT22;14800;48.174;9.798;2022-08-21T02:42:59;17.20;81.90
27314;DHT22;14800;48.174;9.798;2022-08-21T02:45:26;17.20;82.20
27314;DHT22;14800;48.174;9.798;2022-08-21T02:47:56;17.20;82.40
27314;DHT22;14800;48.174;9.798;2022-08-21T02:50:28;17.20;82.60
27314;DHT22;14800;48.174;9.798;2022-08-21T02:52:54;17.20;82.80
27314;DHT22;14800;48.174;9.798;2022-08-21T02:55:21;17.20;82.70
27314;DHT22;14800;48.174;9.798;2022-08-21T02:57:47;17.20;82.50
27314;DHT22;14800;48.174;9.798;2022-08-21T03:00:14;17.20;82.30
27314;DHT22;14800;48.174;9.798;2022-08-21T03:02:41;17.20;82.20
27314;DHT22;14800;48.174;9.798;2022-08-21T03:05:09;17.20;82.10
27314;DHT22;14800;48.174;9.798;2022-08-21T03:07:36;17.20;82.00
27314;DHT22;14800;48.174;9.798;2022-08-21T03:10:03;17.20;82.20
27314;DHT22;14800;48.174;9.798;2022-08-21T03:12:28;17.20;82.20
27314;DHT22;14800;48.174;9.798;2022-08-21T03:14:54;17.20;82.10
27314;DHT22;14800;48.174;9.798;2022-08-21T03:17:20;17.20;82.00
27314;DHT22;14800;48.174;9.798;2022-08-21T03:19:45;17.20;81.80
27314;DHT22;14800;48.174;9.798;2022-08-21T03:22:11;17.10;81.80
27314;DHT22;14800;48.174;9.798;2022-08-21T03:24:37;17.10;81.80
27314;DHT22;14800;48.174;9.798;2022-08-21T03:27:03;17.10;82.00
27314;DHT22;14800;48.174;9.798;2022-08-21T03:29:28;17.00;82.00
27314;DHT22;14800;48.174;9.798;2022-08-21T03:31:54;17.00;82.30
27314;DHT22;14800;48.174;9.798;2022-08-21T03:34:20;17.00;82.40
27314;DHT22;14800;48.174;9.798;2022-08-21T03:36:47;17.00;82.50
27314;DHT22;14800;48.174;9.798;2022-08-21T03:39:14;16.90;82.50
27314;DHT22;14800;48.174;9.798;2022-08-21T03:41:40;16.90;82.70
27314;DHT22;14800;48.174;9.798;2022-08-21T03:44:06;16.90;82.90
27314;DHT22;14800;48.174;9.798;2022-08-21T03:46:31;16.90;83.10
27314;DHT22;14800;48.174;9.798;2022-08-21T03:48:57;16.90;83.20
27314;DHT22;14800;48.174;9.798;2022-08-21T03:51:22;17.00;83.30
27314;DHT22;14800;48.174;9.798;2022-08-21T03:53:48;16.90;83.10
27314;DHT22;14800;48.174;9.798;2022-08-21T03:56:14;16.90;82.90
27314;DHT22;14800;48.174;9.798;2022-08-21T03:58:41;17.00;82.70
27314;DHT22;14800;48.174;9.798;2022-08-21T04:01:07;17.00;82.40
27314;DHT22;14800;48.174;9.798;2022-08-21T04:03:34;16.90;82.40
27314;DHT22;14800;48.174;9.798;2022-08-21T04:06:00;16.90;82.60
27314;DHT22;14800;48.174;9.798;2022-08-21T04:08:26;16.90;82.30
27314;DHT22;14800;48.174;9.798;2022-08-21T04:10:53;16.90;82.10
27314;DHT22;14800;48.174;9.798;2022-08-21T04:13:20;16.90;82.40
27314;DHT22;14800;48.174;9.798;2022-08-21T04:15:46;16.90;82.60
27314;DHT22;14800;48.174;9.798;2022-08-21T04:18:13;16.90;82.60
27314;DHT22;14800;48.174;9.798;2022-08-21T04:20:39;16.90;82.30
27314;DHT22;14800;48.174;9.798;2022-08-21T04:23:06;16.80;82.10
27314;DHT22;14800;48.174;9.798;2022-08-21T04:25:32;16.80;82.20
27314;DHT22;14800;48.174;9.798;2022-08-21T04:27:57;16.80;82.10
27314;DHT22;14800;48.174;9.798;2022-08-21T04:30:23;16.80;81.70
27314;DHT22;14800;48.174;9.798;2022-08-21T04:32:50;16.80;81.70
27314;DHT22;14800;48.174;9.798;2022-08-21T04:35:19;16.70;81.60
27314;DHT22;14800;48.174;9.798;2022-08-21T04:37:44;16.70;81.80
27314;DHT22;14800;48.174;9.798;2022-08-21T04:40:11;16.70;82.00
27314;DHT22;14800;48.174;9.798;2022-08-21T04:42:50;16.70;81.50
27314;DHT22;14800;48.174;9.798;2022-08-21T04:45:20;16.60;81.40
27314;DHT22;14800;48.174;9.798;2022-08-21T04:47:49;16.60;81.30
27314;DHT22;14800;48.174;9.798;2022-08-21T04:50:15;16.60;81.70
27314;DHT22;14800;48.174;9.798;2022-08-21T04:52:41;16.50;81.90
27314;DHT22;14800;48.174;9.798;2022-08-21T04:55:07;16.50;82.00
27314;DHT22;14800;48.174;9.798;2022-08-21T04:57:34;16.50;82.00
27314;DHT22;14800;48.174;9.798;2022-08-21T05:00:00;16.50;81.70
27314;DHT22;14800;48.174;9.798;2022-08-21T05:02:26;16.50;81.50
27314;DHT22;14800;48.174;9.798;2022-08-21T05:04:53;16.50;81.50
27314;DHT22;14800;48.174;9.798;2022-08-21T05:07:22;16.40;81.70
27314;DHT22;14800;48.174;9.798;2022-08-21T05:09:49;16.40;82.10
27314;DHT22;14800;48.174;9.798;2022-08-21T05:12:15;16.40;82.40
27314;DHT22;14800;48.174;9.798;2022-08-21T05:14:41;16.40;82.40
27314;DHT22;14800;48.174;9.798;2022-08-21T05:17:08;16.40;82.40
27314;DHT22;14800;48.174;9.798;2022-08-21T05:19:34;16.40;82.00
27314;DHT22;14800;48.174;9.798;2022-08-21T05:22:00;16.40;82.10
27314;DHT22;14800;48.174;9.798;2022-08-21T05:24:27;16.40;82.50
27314;DHT22;14800;48.174;9.798;2022-08-21T05:26:53;16.40;82.90
27314;DHT22;14800;48.174;9.798;2022-08-21T05:29:18;16.40;83.30
27314;DHT22;14800;48.174;9.798;2022-08-21T05:31:44;16.40;83.40
27314;DHT22;14800;48.174;9.798;2022-08-21T05:34:11;16.50;83.60
27314;DHT22;14800;48.174;9.798;2022-08-21T05:36:37;16.50;83.80
27314;DHT22;14800;48.174;9.798;2022-08-21T05:39:03;16.50;84.00
27314;DHT22;14800;48.174;9.798;2022-08-21T05:41:28;16.50;84.10
27314;DHT22;14800;48.174;9.798;2022-08-21T05:43:54;16.70;85.20
27314;DHT22;14800;48.174;9.798;2022-08-21T05:46:19;16.60;84.40
27314;DHT22;14800;48.174;9.798;2022-08-21T05:48:45;16.70;84.50
27314;DHT22;14800;48.174;9.798;2022-08-21T05:51:13;16.80;84.70
27314;DHT22;14800;48.174;9.798;2022-08-21T05:53:39;16.80;84.80
27314;DHT22;14800;48.174;9.798;2022-08-21T05:56:08;16.90;84.80
27314;DHT22;14800;48.174;9.798;2022-08-21T05:58:34;17.00;84.80
27314;DHT22;14800;48.174;9.798;2022-08-21T06:01:01;17.00;85.00
27314;DHT22;14800;48.174;9.798;2022-08-21T06:03:29;17.00;85.20
27314;DHT22;14800;48.174;9.798;2022-08-21T06:05:56;17.10;85.30
27314;DHT22;14800;48.174;9.798;2022-08-21T06:08:22;17.10;85.30
27314;DHT22;14800;48.174;9.798;2022-08-21T06:10:50;17.20;85.40
27314;DHT22;14800;48.174;9.798;2022-08-21T06:13:17;17.30;85.50
27314;DHT22;14800;48.174;9.798;2022-08-21T06:15:43;17.30;85.50
27314;DHT22;14800;48.174;9.798;2022-08-21T06:18:10;17.40;85.70
27314;DHT22;14800;48.174;9.798;2022-08-21T06:20:35;17.40;85.50
27314;DHT22;14800;48.174;9.798;2022-08-21T06:23:01;17.50;85.50
27314;DHT22;14800;48.174;9.798;2022-08-21T06:25:28;17.60;85.50
27314;DHT22;14800;48.174;9.798;2022-08-21T06:28:03;17.60;85.70
27314;DHT22;14800;48.174;9.798;2022-08-21T06:30:29;17.70;86.00
27314;DHT22;14800;48.174;9.798;2022-08-21T06:32:55;17.70;85.80
27314;DHT22;14800;48.174;9.798;2022-08-21T06:35:20;17.80;86.00
27314;DHT22;14800;48.174;9.798;2022-08-21T06:37:46;17.80;86.00
27314;DHT22;14800;48.174;9.798;2022-08-21T06:40:12;17.90;86.20
27314;DHT22;14800;48.174;9.798;2022-08-21T06:42:38;17.90;86.20
27314;DHT22;14800;48.174;9.798;2022-08-21T06:45:04;18.00;86.40
27314;DHT22;14800;48.174;9.798;2022-08-21T06:47:30;18.00;86.40
27314;DHT22;14800;48.174;9.798;2022-08-21T06:49:55;18.10;86.50
27314;DHT22;14800;48.174;9.798;2022-08-21T06:52:21;18.10;86.60
27314;DHT22;14800;48.174;9.798;2022-08-21T06:54:47;18.20;86.60
27314;DHT22;14800;48.174;9.798;2022-08-21T06:57:12;18.20;86.60
27314;DHT22;14800;48.174;9.798;2022-08-21T06:59:38;18.20;86.40
27314;DHT22;14800;48.174;9.798;2022-08-21T07:02:04;18.30;86.30
27314;DHT22;14800;48.174;9.798;2022-08-21T07:04:30;18.30;86.40
27314;DHT22;14800;48.174;9.798;2022-08-21T07:06:55;18.40;86.90
27314;DHT22;14800;48.174;9.798;2022-08-21T07:09:21;18.40;86.90
27314;DHT22;14800;48.174;9.798;2022-08-21T07:11:50;18.50;86.70
27314;DHT22;14800;48.174;9.798;2022-08-21T07:14:17;18.50;86.70
27314;DHT22;14800;48.174;9.798;2022-08-21T07:16:42;18.50;86.40
27314;DHT22;14800;48.174;9.798;2022-08-21T07:19:08;18.60;86.50
27314;DHT22;14800;48.174;9.798;2022-08-21T07:21:34;18.70;86.30
27314;DHT22;14800;48.174;9.798;2022-08-21T07:23:59;18.70;86.20
27314;DHT22;14800;48.174;9.798;2022-08-21T07:26:25;18.80;86.00
27314;DHT22;14800;48.174;9.798;2022-08-21T07:28:51;18.80;86.10
27314;DHT22;14800;48.174;9.798;2022-08-21T07:31:19;18.90;86.00
27314;DHT22;14800;48.174;9.798;2022-08-21T07:33:45;19.00;85.80
27314;DHT22;14800;48.174;9.798;2022-08-21T07:36:11;19.00;85.30
27314;DHT22;14800;48.174;9.798;2022-08-21T07:38:37;19.10;85.10
27314;DHT22;14800;48.174;9.798;2022-08-21T07:41:09;19.20;85.00
27314;DHT22;14800;48.174;9.798;2022-08-21T07:43:37;19.30;85.00
27314;DHT22;14800;48.174;9.798;2022-08-21T07:46:03;19.30;85.20
27314;DHT22;14800;48.174;9.798;2022-08-21T07:48:28;19.40;85.00
27314;DHT22;14800;48.174;9.798;2022-08-21T07:50:54;19.50;84.00
27314;DHT22;14800;48.174;9.798;2022-08-21T07:53:20;19.50;83.40
27314;DHT22;14800;48.174;9.798;2022-08-21T07:55:46;19.60;83.30
27314;DHT22;14800;48.174;9.798;2022-08-21T07:58:12;19.70;83.70
27314;DHT22;14800;48.174;9.798;2022-08-21T08:00:39;19.80;83.10
27314;DHT22;14800;48.174;9.798;2022-08-21T08:03:05;19.80;82.90
27314;DHT22;14800;48.174;9.798;2022-08-21T08:05:31;19.90;82.70
27314;DHT22;14800;48.174;9.798;2022-08-21T08:07:57;19.90;82.40
27314;DHT22;14800;48.174;9.798;2022-08-21T08:10:24;20.00;82.10
27314;DHT22;14800;48.174;9.798;2022-08-21T08:12:51;20.10;82.00
27314;DHT22;14800;48.174;9.798;2022-08-21T08:15:22;20.20;81.90
27314;DHT22;14800;48.174;9.798;2022-08-21T08:17:48;20.30;81.70
27314;DHT22;14800;48.174;9.798;2022-08-21T08:20:16;20.30;81.60
27314;DHT22;14800;48.174;9.798;2022-08-21T08:22:42;20.40;81.20
27314;DHT22;14800;48.174;9.798;2022-08-21T08:25:10;20.50;80.50
27314;DHT22;14800;48.174;9.798;2022-08-21T08:27:37;20.60;79.80
27314;DHT22;14800;48.174;9.798;2022-08-21T08:30:05;20.70;79.40
27314;DHT22;14800;48.174;9.798;2022-08-21T08:32:31;20.70;79.30
27314;DHT22;14800;48.174;9.798;2022-08-21T08:34:56;20.80;78.50
27314;DHT22;14800;48.174;9.798;2022-08-21T08:37:22;20.90;78.40
27314;DHT22;14800;48.174;9.798;2022-08-21T08:39:48;21.00;77.90
27314;DHT22;14800;48.174;9.798;2022-08-21T08:42:27;21.10;77.00
27314;DHT22;14800;48.174;9.798;2022-08-21T08:45:19;21.10;75.50
27314;DHT22;14800;48.174;9.798;2022-08-21T08:47:51;21.20;75.60
27314;DHT22;14800;48.174;9.798;2022-08-21T08:50:26;21.30;75.70
27314;DHT22;14800;48.174;9.798;2022-08-21T08:53:04;21.30;74.80
27314;DHT22;14800;48.174;9.798;2022-08-21T08:55:36;21.40;74.60
27314;DHT22;14800;48.174;9.798;2022-08-21T08:58:03;21.50;74.30
27314;DHT22;14800;48.174;9.798;2022-08-21T09:00:31;21.60;72.80
27314;DHT22;14800;48.174;9.798;2022-08-21T09:02:59;21.60;71.60
27314;DHT22;14800;48.174;9.798;2022-08-21T09:05:40;21.70;72.30
27314;DHT22;14800;48.174;9.798;2022-08-21T09:27:07;22.20;67.00
27314;DHT22;14800;48.174;9.798;2022-08-21T09:29:37;22.30;66.90
27314;DHT22;14800;48.174;9.798;2022-08-21T09:32:15;22.40;66.80
27314;DHT22;14800;48.174;9.798;2022-08-21T09:34:43;22.40;64.10
27314;DHT22;14800;48.174;9.798;2022-08-21T09:37:19;22.50;65.20
27314;DHT22;14800;48.174;9.798;2022-08-21T09:39:45;22.50;65.50
27314;DHT22;14800;48.174;9.798;2022-08-21T09:42:11;22.60;65.60
27314;DHT22;14800;48.174;9.798;2022-08-21T09:44:45;22.70;66.50
27314;DHT22;14800;48.174;9.798;2022-08-21T09:47:12;22.70;67.30
27314;DHT22;14800;48.174;9.798;2022-08-21T09:49:40;22.80;67.40
27314;DHT22;14800;48.174;9.798;2022-08-21T09:52:20;22.90;66.90
27314;DHT22;14800;48.174;9.798;2022-08-21T09:54:52;23.00;64.30
27314;DHT22;14800;48.174;9.798;2022-08-21T09:57:27;23.10;65.50
27314;DHT22;14800;48.174;9.798;2022-08-21T10:02:36;23.30;62.40
27314;DHT22;14800;48.174;9.798;2022-08-21T10:05:20;23.40;63.60
27314;DHT22;14800;48.174;9.798;2022-08-21T10:07:48;23.50;61.60
27314;DHT22;14800;48.174;9.798;2022-08-21T10:18:12;23.80;60.30
27314;DHT22;14800;48.174;9.798;2022-08-21T10:26:02;24.10;58.90
27314;DHT22;14800;48.174;9.798;2022-08-21T10:37:13;24.30;56.50
27314;DHT22;14800;48.174;9.798;2022-08-21T10:39:44;24.40;56.70
27314;DHT22;14800;48.174;9.798;2022-08-21T10:42:24;24.40;58.20
27314;DHT22;14800;48.174;9.798;2022-08-21T10:45:07;24.40;56.70
27314;DHT22;14800;48.174;9.798;2022-08-21T10:47:41;24.40;57.30
27314;DHT22;14800;48.174;9.798;2022-08-21T10:52:54;24.60;56.80
27314;DHT22;14800;48.174;9.798;2022-08-21T10:55:25;24.60;56.20
27314;DHT22;14800;48.174;9.798;2022-08-21T10:57:59;24.70;56.50
27314;DHT22;14800;48.174;9.798;2022-08-21T11:05:48;24.70;54.70
27314;DHT22;14800;48.174;9.798;2022-08-21T11:08:40;24.80;54.70
27314;DHT22;14800;48.174;9.798;2022-08-21T11:16:26;24.80;54.90
27314;DHT22;14800;48.174;9.798;2022-08-21T11:19:19;24.90;54.40
27314;DHT22;14800;48.174;9.798;2022-08-21T11:24:32;25.00;54.80
27314;DHT22;14800;48.174;9.798;2022-08-21T11:29:49;25.00;52.50
27314;DHT22;14800;48.174;9.798;2022-08-21T11:32:29;25.10;52.90
27314;DHT22;14800;48.174;9.798;2022-08-21T11:45:54;25.30;52.30
27314;DHT22;14800;48.174;9.798;2022-08-21T11:57:22;25.40;50.90
27314;DHT22;14800;48.174;9.798;2022-08-21T12:00:00;25.40;51.20
27314;DHT22;14800;48.174;9.798;2022-08-21T12:02:31;25.40;51.30
27314;DHT22;14800;48.174;9.798;2022-08-21T12:05:21;25.40;51.70
27314;DHT22;14800;48.174;9.798;2022-08-21T12:07:47;25.40;47.80
27314;DHT22;14800;48.174;9.798;2022-08-21T12:10:18;25.40;50.30
27314;DHT22;14800;48.174;9.798;2022-08-21T12:12:46;25.30;50.00
27314;DHT22;14800;48.174;9.798;2022-08-21T12:18:00;25.30;51.20
27314;DHT22;14800;48.174;9.798;2022-08-21T12:25:39;25.40;51.60
27314;DHT22;14800;48.174;9.798;2022-08-21T12:28:11;25.50;51.80
27314;DHT22;14800;48.174;9.798;2022-08-21T12:30:42;25.50;51.30
27314;DHT22;14800;48.174;9.798;2022-08-21T12:38:46;25.60;50.50
27314;DHT22;14800;48.174;9.798;2022-08-21T12:41:19;25.60;50.90
27314;DHT22;14800;48.174;9.798;2022-08-21T12:43:51;25.70;51.00
27314;DHT22;14800;48.174;9.798;2022-08-21T12:46:28;25.70;50.40
27314;DHT22;14800;48.174;9.798;2022-08-21T12:48:59;25.70;49.10
27314;DHT22;14800;48.174;9.798;2022-08-21T12:51:51;25.70;49.80
27314;DHT22;14800;48.174;9.798;2022-08-21T12:54:29;25.70;49.10
27314;DHT22;14800;48.174;9.798;2022-08-21T12:57:06;25.60;48.30
27314;DHT22;14800;48.174;9.798;2022-08-21T12:59:37;25.60;48.80
27314;DHT22;14800;48.174;9.798;2022-08-21T13:02:09;25.60;48.20
27314;DHT22;14800;48.174;9.798;2022-08-21T13:04:40;25.60;49.20
27314;DHT22;14800;48.174;9.798;2022-08-21T13:07:09;25.60;49.50
27314;DHT22;14800;48.174;9.798;2022-08-21T13:10:04;25.60;49.90
27314;DHT22;14800;48.174;9.798;2022-08-21T13:12:29;25.60;49.50
27314;DHT22;14800;48.174;9.798;2022-08-21T13:15:02;25.60;51.10
27314;DHT22;14800;48.174;9.798;2022-08-21T13:17:32;25.60;49.40
27314;DHT22;14800;48.174;9.798;2022-08-21T13:20:06;25.60;50.50
27314;DHT22;14800;48.174;9.798;2022-08-21T13:22:39;25.70;49.50
27314;DHT22;14800;48.174;9.798;2022-08-21T13:25:10;25.70;49.70
27314;DHT22;14800;48.174;9.798;2022-08-21T13:27:36;25.70;49.00
27314;DHT22;14800;48.174;9.798;2022-08-21T13:30:07;25.70;49.60
27314;DHT22;14800;48.174;9.798;2022-08-21T13:32:35;25.70;49.10
27314;DHT22;14800;48.174;9.798;2022-08-21T13:37:46;25.70;49.10
27314;DHT22;14800;48.174;9.798;2022-08-21T13:40:16;25.70;49.10
27314;DHT22;14800;48.174;9.798;2022-08-21T13:42:46;25.80;49.20
27314;DHT22;14800;48.174;9.798;2022-08-21T13:45:32;25.80;49.40
27314;DHT22;14800;48.174;9.798;2022-08-21T13:48:00;25.90;48.00
27314;DHT22;14800;48.174;9.798;2022-08-21T13:50:26;25.90;48.70
27314;DHT22;14800;48.174;9.798;2022-08-21T13:53:00;25.90;48.40
27314;DHT22;14800;48.174;9.798;2022-08-21T13:55:35;25.90;48.00
27314;DHT22;14800;48.174;9.798;2022-08-21T13:58:03;25.90;47.50
27314;DHT22;14800;48.174;9.798;2022-08-21T14:00:32;25.90;48.70
27314;DHT22;14800;48.174;9.798;2022-08-21T14:03:07;26.00;48.40
27314;DHT22;14800;48.174;9.798;2022-08-21T14:05:37;25.90;47.50
27314;DHT22;14800;48.174;9.798;2022-08-21T14:08:29;26.00;48.20
27314;DHT22;14800;48.174;9.798;2022-08-21T14:10:56;26.00;48.60
27314;DHT22;14800;48.174;9.798;2022-08-21T14:15:59;26.10;47.30
27314;DHT22;14800;48.174;9.798;2022-08-21T14:18:25;26.10;47.30
27314;DHT22;14800;48.174;9.798;2022-08-21T14:21:03;26.10;46.60
27314;DHT22;14800;48.174;9.798;2022-08-21T14:23:29;26.10;47.10
27314;DHT22;14800;48.174;9.798;2022-08-21T14:26:02;26.10;47.40
27314;DHT22;14800;48.174;9.798;2022-08-21T14:28:39;26.10;46.60
27314;DHT22;14800;48.174;9.798;2022-08-21T14:31:17;26.10;46.60
27314;DHT22;14800;48.174;9.798;2022-08-21T14:33:43;26.10;45.90
27314;DHT22;14800;48.174;9.798;2022-08-21T14:36:10;26.10;46.60
27314;DHT22;14800;48.174;9.798;2022-08-21T14:38:38;26.10;46.30
27314;DHT22;14800;48.174;9.798;2022-08-21T14:41:18;26.10;46.50
27314;DHT22;14800;48.174;9.798;2022-08-21T14:43:46;26.10;45.20
27314;DHT22;14800;48.174;9.798;2022-08-21T14:46:18;26.20;45.20
27314;DHT22;14800;48.174;9.798;2022-08-21T14:48:46;26.20;45.10
27314;DHT22;14800;48.174;9.798;2022-08-21T14:51:12;26.10;45.60
27314;DHT22;14800;48.174;9.798;2022-08-21T14:53:38;26.20;45.50
27314;DHT22;14800;48.174;9.798;2022-08-21T14:56:04;26.20;45.00
27314;DHT22;14800;48.174;9.798;2022-08-21T14:58:31;26.20;45.20
27314;DHT22;14800;48.174;9.798;2022-08-21T15:00:57;26.20;45.40
27314;DHT22;14800;48.174;9.798;2022-08-21T15:03:25;26.20;45.50
27314;DHT22;14800;48.174;9.798;2022-08-21T15:05:51;26.20;44.80
27314;DHT22;14800;48.174;9.798;2022-08-21T15:08:17;26.10;45.10
27314;DHT22;14800;48.174;9.798;2022-08-21T15:10:43;26.10;45.40
27314;DHT22;14800;48.174;9.798;2022-08-21T15:13:10;26.20;45.80
27314;DHT22;14800;48.174;9.798;2022-08-21T15:15:41;26.10;46.10
27314;DHT22;14800;48.174;9.798;2022-08-21T15:18:07;26.10;45.40
27314;DHT22;14800;48.174;9.798;2022-08-21T15:20:34;26.20;46.20
27314;DHT22;14800;48.174;9.798;2022-08-21T15:23:00;26.20;46.30
27314;DHT22;14800;48.174;9.798;2022-08-21T15:25:27;26.20;46.50
27314;DHT22;14800;48.174;9.798;2022-08-21T15:27:52;26.20;46.00
27314;DHT22;14800;48.174;9.798;2022-08-21T15:30:18;26.20;46.00
27314;DHT22;14800;48.174;9.798;2022-08-21T15:32:44;26.20;45.70
27314;DHT22;14800;48.174;9.798;2022-08-21T15:35:10;26.30;46.20
27314;DHT22;14800;48.174;9.798;2022-08-21T15:37:36;26.30;46.40
27314;DHT22;14800;48.174;9.798;2022-08-21T15:40:03;26.30;46.20
27314;DHT22;14800;48.174;9.798;2022-08-21T15:42:29;26.30;46.40
27314;DHT22;14800;48.174;9.798;2022-08-21T15:44:55;26.30;46.60
27314;DHT22;14800;48.174;9.798;2022-08-21T15:47:25;26.40;46.10
27314;DHT22;14800;48.174;9.798;2022-08-21T15:49:51;26.40;46.00
27314;DHT22;14800;48.174;9.798;2022-08-21T15:52:19;26.40;46.20
27314;DHT22;14800;48.174;9.798;2022-08-21T15:54:46;26.40;45.90
27314;DHT22;14800;48.174;9.798;2022-08-21T15:57:14;26.40;45.70
27314;DHT22;14800;48.174;9.798;2022-08-21T15:59:52;26.40;45.60
27314;DHT22;14800;48.174;9.798;2022-08-21T16:02:27;26.40;45.10
27314;DHT22;14800;48.174;9.798;2022-08-21T16:04:54;26.40;44.70
27314;DHT22;14800;48.174;9.798;2022-08-21T16:07:19;26.40;45.50
27314;DHT22;14800;48.174;9.798;2022-08-21T16:09:45;26.40;45.00
27314;DHT22;14800;48.174;9.798;2022-08-21T16:12:21;26.40;45.30
27314;DHT22;14800;48.174;9.798;2022-08-21T16:14:48;26.40;46.00
27314;DHT22;14800;48.174;9.798;2022-08-21T16:17:15;26.50;45.30
27314;DHT22;14800;48.174;9.798;2022-08-21T16:19:41;26.50;45.50
27314;DHT22;14800;48.174;9.798;2022-08-21T16:22:06;26.50;46.00
27314;DHT22;14800;48.174;9.798;2022-08-21T16:24:32;26.60;46.20
27314;DHT22;14800;48.174;9.798;2022-08-21T16:26:58;26.60;45.90
27314;DHT22;14800;48.174;9.798;2022-08-21T16:29:25;26.70;45.30
27314;DHT22;14800;48.174;9.798;2022-08-21T16:31:51;26.70;45.70
27314;DHT22;14800;48.174;9.798;2022-08-21T16:34:18;26.70;46.30
27314;DHT22;14800;48.174;9.798;2022-08-21T16:36:45;26.80;46.20
27314;DHT22;14800;48.174;9.798;2022-08-21T16:39:11;26.90;46.40
27314;DHT22;14800;48.174;9.798;2022-08-21T16:41:37;27.00;46.90
27314;DHT22;14800;48.174;9.798;2022-08-21T16:44:04;27.10;46.00
27314;DHT22;14800;48.174;9.798;2022-08-21T16:46:34;27.30;45.00
27314;DHT22;14800;48.174;9.798;2022-08-21T16:49:01;27.50;44.00
27314;DHT22;14800;48.174;9.798;2022-08-21T16:51:26;27.70;45.00
27314;DHT22;14800;48.174;9.798;2022-08-21T16:53:53;28.00;45.20
27314;DHT22;14800;48.174;9.798;2022-08-21T16:56:19;28.20;46.00
27314;DHT22;14800;48.174;9.798;2022-08-21T16:58:47;28.50;45.60
27314;DHT22;14800;48.174;9.798;2022-08-21T17:01:16;28.80;44.90
27314;DHT22;14800;48.174;9.798;2022-08-21T17:03:45;29.00;44.60
27314;DHT22;14800;48.174;9.798;2022-08-21T17:06:11;29.30;44.00
27314;DHT22;14800;48.174;9.798;2022-08-21T17:08:37;29.50;43.30
27314;DHT22;14800;48.174;9.798;2022-08-21T17:11:06;29.70;42.60
27314;DHT22;14800;48.174;9.798;2022-08-21T17:13:32;29.90;42.80
27314;DHT22;14800;48.174;9.798;2022-08-21T17:15:58;30.00;43.80
27314;DHT22;14800;48.174;9.798;2022-08-21T17:18:24;30.20;43.30
27314;DHT22;14800;48.174;9.798;2022-08-21T17:20:50;30.30;43.60
27314;DHT22;14800;48.174;9.798;2022-08-21T17:23:17;30.40;43.00